PWSweather.com
Personal Weather Stations
Station Observations
KTXPLANO60
Highlands Of Russell Park, Plano, TX 75025

Highlands Of Russell ParkPlano, TX 75025

Lat: 33.10431671, Lon: -96.75176239

Elevation: 761

Station Type: Davis Wireless VP2 Plus

http://www.planoweather.com

Latest ConditionsUpdated 9:50:02 PM CDT Monday, Apr 23, 2018
Currently Today's Max Today's Min Today's Average
Temperature 64.1°F17.8°C 73.1°F22.8°C 50.1°F10.1°C 61.4°F16.3°C
Dew Point 55.7°F13.2°C 56.9°F13.8°C 46.7°F8.2°C 51.8°F11.0°C
Winds Calm Calm 9.2 mph W14.8 kmh W - 3.7 mph 6.0 kmh
Wind Gusts -- 19.6 mph31.5 kmh - -
Humidity 74% 90% 53% 72%
Pressure 29.97 in1014.9 mb 30.06 in1017.9 mb 29.93 in1013.5 mb -
Hour Temp Dew Point Humidity Winds Wind Gusts Pressure Precip Precip Rate Daily Precip Total
09:50 PM 64.1°F17.8°C 55.7°F13.2°C 74% Calm Calm -- 29.97 in1014.9 mb - 0.00 in0.0 mm 0.00 in0.0 mm
09:40 PM 64.4°F18.0°C 54.0°F12.2°C 69% Calm Calm -- 29.97 in1014.9 mb - 0.00 in0.0 mm 0.00 in0.0 mm
09:30 PM 64.8°F18.2°C 54.4°F12.4°C 69% Calm Calm -- 29.97 in1014.9 mb - 0.00 in0.0 mm 0.00 in0.0 mm
09:20 PM 65.2°F18.4°C 54.4°F12.4°C 68% Calm Calm -- 29.96 in1014.6 mb - 0.00 in0.0 mm 0.00 in0.0 mm
09:10 PM 65.7°F18.7°C 54.0°F12.2°C 66% Calm Calm -- 29.95 in1014.2 mb - 0.00 in0.0 mm 0.00 in0.0 mm
09:00 PM 66.1°F18.9°C 53.6°F12.0°C 64% Calm Calm -- 29.95 in1014.2 mb - 0.00 in0.0 mm 0.00 in0.0 mm
08:50 PM 66.7°F19.3°C 53.7°F12.1°C 63% Calm Calm -- 29.95 in1014.2 mb - 0.00 in0.0 mm 0.00 in0.0 mm
08:40 PM 67.1°F19.5°C 53.7°F12.1°C 62% Calm Calm -- 29.95 in1014.2 mb - 0.00 in0.0 mm 0.00 in0.0 mm
08:30 PM 67.7°F19.8°C 53.8°F12.1°C 61% Calm Calm -- 29.95 in1014.2 mb - 0.00 in0.0 mm 0.00 in0.0 mm
08:20 PM 68.2°F20.1°C 53.8°F12.1°C 60% Calm Calm -- 29.95 in1014.2 mb - 0.00 in0.0 mm 0.00 in0.0 mm
08:10 PM 68.7°F20.4°C 54.3°F12.4°C 60% Calm Calm -- 29.95 in1014.2 mb - 0.00 in0.0 mm 0.00 in0.0 mm
08:00 PM 69.3°F20.7°C 54.4°F12.4°C 59% Calm Calm -- 29.94 in1013.9 mb - 0.00 in0.0 mm 0.00 in0.0 mm
07:50 PM 70.6°F21.4°C 56.9°F13.8°C 62% 1.2 mph NW1.9 kmh NW 1.2 mph1.9 kmh 29.94 in1013.9 mb - 0.00 in0.0 mm 0.00 in0.0 mm
07:40 PM 71.2°F21.8°C 54.2°F12.3°C 55% 2.3 mph NW3.7 kmh NW 5.8 mph9.3 kmh 29.94 in1013.9 mb - 0.00 in0.0 mm 0.00 in0.0 mm
07:30 PM 71.4°F21.9°C 53.9°F12.2°C 54% Calm Calm 4.6 mph7.4 kmh 29.94 in1013.9 mb - 0.00 in0.0 mm 0.00 in0.0 mm
07:20 PM 71.6°F22.0°C 54.1°F12.3°C 54% 4.6 mph NW7.4 kmh NW 4.6 mph7.4 kmh 29.93 in1013.5 mb - 0.00 in0.0 mm 0.00 in0.0 mm
07:10 PM 71.8°F22.1°C 54.3°F12.4°C 54% 6.9 mph NW11.1 kmh NW 11.5 mph18.5 kmh 29.94 in1013.9 mb - 0.00 in0.0 mm 0.00 in0.0 mm
07:00 PM 71.9°F22.2°C 54.9°F12.7°C 55% Calm Calm 2.3 mph3.7 kmh 29.94 in1013.9 mb - 0.00 in0.0 mm 0.00 in0.0 mm
06:50 PM 72.3°F22.4°C 54.7°F12.6°C 54% Calm Calm -- 29.94 in1013.9 mb - 0.00 in0.0 mm 0.00 in0.0 mm
06:40 PM 72.5°F22.5°C 54.9°F12.7°C 54% Calm Calm 3.5 mph5.6 kmh 29.94 in1013.9 mb - 0.00 in0.0 mm 0.00 in0.0 mm
06:30 PM 72.5°F22.5°C 54.9°F12.7°C 54% 1.2 mph NW1.9 kmh NW 8.1 mph13.0 kmh 29.94 in1013.9 mb - 0.00 in0.0 mm 0.00 in0.0 mm
06:20 PM 72.6°F22.6°C 55.0°F12.8°C 54% 1.2 mph N1.9 kmh N 2.3 mph3.7 kmh 29.94 in1013.9 mb - 0.00 in0.0 mm 0.00 in0.0 mm
06:10 PM 72.6°F22.6°C 55.0°F12.8°C 54% 5.8 mph NW9.3 kmh NW 9.2 mph14.8 kmh 29.95 in1014.2 mb - 0.00 in0.0 mm 0.00 in0.0 mm
06:00 PM 72.8°F22.7°C 55.2°F12.9°C 54% 5.8 mph NW9.3 kmh NW 9.2 mph14.8 kmh 29.95 in1014.2 mb - 0.00 in0.0 mm 0.00 in0.0 mm
05:50 PM 73.0°F22.8°C 54.9°F12.7°C 53% 8.1 mph NW13.0 kmh NW 11.5 mph18.5 kmh 29.95 in1014.2 mb - 0.00 in0.0 mm 0.00 in0.0 mm
05:40 PM 73.0°F22.8°C 54.8°F12.7°C 53% 2.3 mph N3.7 kmh N 8.1 mph13.0 kmh 29.95 in1014.2 mb - 0.00 in0.0 mm 0.00 in0.0 mm
05:30 PM 72.7°F22.6°C 55.1°F12.8°C 54% 6.9 mph NNW11.1 kmh NNW 10.4 mph16.7 kmh 29.95 in1014.2 mb - 0.00 in0.0 mm 0.00 in0.0 mm
05:20 PM 72.4°F22.4°C 55.3°F12.9°C 55% 3.5 mph WNW5.6 kmh WNW 6.9 mph11.1 kmh 29.95 in1014.2 mb - 0.00 in0.0 mm 0.00 in0.0 mm
05:10 PM 72.2°F22.3°C 55.7°F13.2°C 56% 4.6 mph NNW7.4 kmh NNW 9.2 mph14.8 kmh 29.95 in1014.2 mb - 0.00 in0.0 mm 0.00 in0.0 mm
05:00 PM 72.4°F22.4°C 55.3°F12.9°C 55% 1.2 mph NNW1.9 kmh NNW 6.9 mph11.1 kmh 29.95 in1014.2 mb - 0.00 in0.0 mm 0.00 in0.0 mm
04:50 PM 72.9°F22.7°C 55.3°F12.9°C 54% 3.5 mph N5.6 kmh N 10.4 mph16.7 kmh 29.95 in1014.2 mb - 0.00 in0.0 mm 0.00 in0.0 mm
04:40 PM 72.6°F22.6°C 55.0°F12.8°C 54% 5.8 mph NW9.3 kmh NW 11.5 mph18.5 kmh 29.96 in1014.6 mb - 0.00 in0.0 mm 0.00 in0.0 mm
04:30 PM 71.3°F21.8°C 55.3°F12.9°C 57% 2.3 mph N3.7 kmh N 5.8 mph9.3 kmh 29.96 in1014.6 mb - 0.00 in0.0 mm 0.00 in0.0 mm
04:20 PM 72.0°F22.2°C 55.4°F13.0°C 56% 4.6 mph NNW7.4 kmh NNW 9.2 mph14.8 kmh 29.96 in1014.6 mb - 0.00 in0.0 mm 0.00 in0.0 mm
04:10 PM 71.9°F22.2°C 55.4°F13.0°C 56% 1.2 mph N1.9 kmh N -- 29.96 in1014.6 mb - 0.00 in0.0 mm 0.00 in0.0 mm
04:00 PM 72.8°F22.7°C 55.2°F12.9°C 54% Calm Calm -- 29.96 in1014.6 mb - 0.00 in0.0 mm 0.00 in0.0 mm
03:50 PM 73.0°F22.8°C 55.9°F13.3°C 55% 4.6 mph NW7.4 kmh NW 9.2 mph14.8 kmh 29.97 in1014.9 mb - 0.00 in0.0 mm 0.00 in0.0 mm
03:40 PM 73.1°F22.8°C 56.0°F13.3°C 55% 9.2 mph N14.8 kmh N 13.8 mph22.2 kmh 29.97 in1014.9 mb - 0.00 in0.0 mm 0.00 in0.0 mm
03:30 PM 71.7°F22.1°C 55.7°F13.2°C 57% 5.8 mph NW9.3 kmh NW 11.5 mph18.5 kmh 29.98 in1015.2 mb - 0.00 in0.0 mm 0.00 in0.0 mm
03:20 PM 71.3°F21.8°C 55.8°F13.2°C 58% 6.9 mph N11.1 kmh N 9.2 mph14.8 kmh 29.99 in1015.6 mb - 0.00 in0.0 mm 0.00 in0.0 mm
03:10 PM 70.9°F21.6°C 55.4°F13.0°C 58% 2.3 mph N3.7 kmh N 5.8 mph9.3 kmh 29.99 in1015.6 mb - 0.00 in0.0 mm 0.00 in0.0 mm
03:00 PM 71.0°F21.7°C 55.9°F13.3°C 59% 6.9 mph NW11.1 kmh NW 11.5 mph18.5 kmh 30.00 in1015.9 mb - 0.00 in0.0 mm 0.00 in0.0 mm
02:50 PM 70.4°F21.3°C 55.4°F13.0°C 59% 1.2 mph N1.9 kmh N 1.2 mph1.9 kmh 30.00 in1015.9 mb - 0.00 in0.0 mm 0.00 in0.0 mm
02:40 PM 69.5°F20.8°C 55.9°F13.3°C 62% 9.2 mph W14.8 kmh W 11.5 mph18.5 kmh 30.00 in1015.9 mb - 0.00 in0.0 mm 0.00 in0.0 mm
02:30 PM 69.1°F20.6°C 55.1°F12.8°C 61% 6.9 mph N11.1 kmh N 11.5 mph18.5 kmh 30.01 in1016.3 mb - 0.00 in0.0 mm 0.00 in0.0 mm
02:20 PM 68.4°F20.2°C 55.3°F12.9°C 63% 5.8 mph NW9.3 kmh NW 19.6 mph31.5 kmh 30.02 in1016.6 mb - 0.00 in0.0 mm 0.00 in0.0 mm
02:10 PM 68.5°F20.3°C 55.4°F13.0°C 63% 2.3 mph NNW3.7 kmh NNW 10.4 mph16.7 kmh 30.01 in1016.3 mb - 0.00 in0.0 mm 0.00 in0.0 mm
02:00 PM 68.3°F20.2°C 54.8°F12.7°C 62% 5.8 mph NW9.3 kmh NW 18.4 mph29.6 kmh 30.02 in1016.6 mb - 0.00 in0.0 mm 0.00 in0.0 mm
01:50 PM 67.8°F19.9°C 55.2°F12.9°C 64% 4.6 mph NW7.4 kmh NW 11.5 mph18.5 kmh 30.02 in1016.6 mb - 0.00 in0.0 mm 0.00 in0.0 mm
01:40 PM 67.1°F19.5°C 55.0°F12.8°C 65% 6.9 mph NNW11.1 kmh NNW 11.5 mph18.5 kmh 30.02 in1016.6 mb - 0.00 in0.0 mm 0.00 in0.0 mm
01:30 PM 66.9°F19.4°C 54.3°F12.4°C 64% 9.2 mph NW14.8 kmh NW 15.0 mph24.1 kmh 30.03 in1016.9 mb - 0.00 in0.0 mm 0.00 in0.0 mm
01:20 PM 66.4°F19.1°C 54.7°F12.6°C 66% 4.6 mph NW7.4 kmh NW 9.2 mph14.8 kmh 30.03 in1016.9 mb - 0.00 in0.0 mm 0.00 in0.0 mm
01:10 PM 65.1°F18.4°C 54.2°F12.3°C 68% 5.8 mph NW9.3 kmh NW 9.2 mph14.8 kmh 30.03 in1016.9 mb - 0.00 in0.0 mm 0.00 in0.0 mm
01:00 PM 65.0°F18.3°C 54.2°F12.3°C 68% 1.2 mph NW1.9 kmh NW 9.2 mph14.8 kmh 30.04 in1017.3 mb - 0.00 in0.0 mm 0.00 in0.0 mm
12:50 PM 65.2°F18.4°C 53.6°F12.0°C 66% 5.8 mph NNW9.3 kmh NNW 11.5 mph18.5 kmh 30.04 in1017.3 mb - 0.00 in0.0 mm 0.00 in0.0 mm
12:40 PM 65.3°F18.5°C 54.1°F12.3°C 67% 6.9 mph N11.1 kmh N 11.5 mph18.5 kmh 30.04 in1017.3 mb - 0.00 in0.0 mm 0.00 in0.0 mm
12:30 PM 63.6°F17.6°C 53.6°F12.0°C 70% 2.3 mph NW3.7 kmh NW 11.5 mph18.5 kmh 30.05 in1017.6 mb - 0.00 in0.0 mm 0.00 in0.0 mm
12:20 PM 63.7°F17.6°C 53.7°F12.1°C 70% 4.6 mph NNW7.4 kmh NNW 12.7 mph20.4 kmh 30.05 in1017.6 mb - 0.00 in0.0 mm 0.00 in0.0 mm
12:10 PM 63.2°F17.3°C 53.3°F11.8°C 70% 5.8 mph N9.3 kmh N 10.4 mph16.7 kmh 30.05 in1017.6 mb - 0.00 in0.0 mm 0.00 in0.0 mm
12:00 PM 62.9°F17.2°C 53.4°F11.9°C 71% 6.9 mph NNW11.1 kmh NNW 11.5 mph18.5 kmh 30.05 in1017.6 mb - 0.00 in0.0 mm 0.00 in0.0 mm
11:50 AM 62.7°F17.1°C 52.8°F11.6°C 70% 4.6 mph NNW7.4 kmh NNW 11.5 mph18.5 kmh 30.05 in1017.6 mb - 0.00 in0.0 mm 0.00 in0.0 mm
11:40 AM 62.7°F17.1°C 53.2°F11.8°C 71% 6.9 mph NW11.1 kmh NW 8.1 mph13.0 kmh 30.05 in1017.6 mb - 0.00 in0.0 mm 0.00 in0.0 mm
11:30 AM 62.2°F16.8°C 53.4°F11.9°C 73% 3.5 mph NNW5.6 kmh NNW 13.8 mph22.2 kmh 30.06 in1017.9 mb - 0.00 in0.0 mm 0.00 in0.0 mm
11:20 AM 61.8°F16.6°C 52.7°F11.5°C 72% 5.8 mph NNW9.3 kmh NNW 13.8 mph22.2 kmh 30.06 in1017.9 mb - 0.00 in0.0 mm 0.00 in0.0 mm
11:10 AM 61.3°F16.3°C 53.3°F11.8°C 75% 6.9 mph NNW11.1 kmh NNW 9.2 mph14.8 kmh 30.06 in1017.9 mb - 0.00 in0.0 mm 0.00 in0.0 mm
11:00 AM 60.9°F16.1°C 52.9°F11.6°C 75% 6.9 mph N11.1 kmh N 11.5 mph18.5 kmh 30.06 in1017.9 mb - 0.00 in0.0 mm 0.00 in0.0 mm
10:50 AM 59.8°F15.4°C 52.6°F11.4°C 77% 6.9 mph N11.1 kmh N 11.5 mph18.5 kmh 30.05 in1017.6 mb - 0.00 in0.0 mm 0.00 in0.0 mm
10:40 AM 59.5°F15.3°C 52.3°F11.3°C 77% 5.8 mph NNW9.3 kmh NNW 12.7 mph20.4 kmh 30.05 in1017.6 mb - 0.00 in0.0 mm 0.00 in0.0 mm
10:30 AM 59.2°F15.1°C 52.3°F11.3°C 78% 9.2 mph NW14.8 kmh NW 13.8 mph22.2 kmh 30.05 in1017.6 mb - 0.00 in0.0 mm 0.00 in0.0 mm
10:20 AM 59.0°F15.0°C 52.1°F11.2°C 78% 8.1 mph NW13.0 kmh NW 11.5 mph18.5 kmh 30.05 in1017.6 mb - 0.00 in0.0 mm 0.00 in0.0 mm
10:10 AM 59.1°F15.1°C 52.2°F11.2°C 78% 2.3 mph NW3.7 kmh NW 8.1 mph13.0 kmh 30.05 in1017.6 mb - 0.00 in0.0 mm 0.00 in0.0 mm
10:00 AM 59.0°F15.0°C 52.1°F11.2°C 78% 1.2 mph NW1.9 kmh NW 6.9 mph11.1 kmh 30.05 in1017.6 mb - 0.00 in0.0 mm 0.00 in0.0 mm
09:50 AM 58.7°F14.8°C 51.8°F11.0°C 78% 6.9 mph NW11.1 kmh NW 15.0 mph24.1 kmh 30.05 in1017.6 mb - 0.00 in0.0 mm 0.00 in0.0 mm
09:40 AM 59.0°F15.0°C 51.8°F11.0°C 77% 6.9 mph WNW11.1 kmh WNW 11.5 mph18.5 kmh 30.05 in1017.6 mb - 0.00 in0.0 mm 0.00 in0.0 mm
09:30 AM 59.2°F15.1°C 52.0°F11.1°C 77% 9.2 mph NW14.8 kmh NW 11.5 mph18.5 kmh 30.04 in1017.3 mb - 0.00 in0.0 mm 0.00 in0.0 mm
09:20 AM 58.6°F14.8°C 52.1°F11.2°C 79% 4.6 mph WNW7.4 kmh WNW 12.7 mph20.4 kmh 30.04 in1017.3 mb - 0.00 in0.0 mm 0.00 in0.0 mm
09:10 AM 58.0°F14.4°C 51.9°F11.1°C 80% 5.8 mph NW9.3 kmh NW 9.2 mph14.8 kmh 30.04 in1017.3 mb - 0.00 in0.0 mm 0.00 in0.0 mm
09:00 AM 57.5°F14.2°C 51.7°F10.9°C 81% 4.6 mph NW7.4 kmh NW 8.1 mph13.0 kmh 30.04 in1017.3 mb - 0.00 in0.0 mm 0.00 in0.0 mm
08:50 AM 57.1°F13.9°C 51.7°F10.9°C 82% 4.6 mph W7.4 kmh W 9.2 mph14.8 kmh 30.04 in1017.3 mb - 0.00 in0.0 mm 0.00 in0.0 mm
08:40 AM 56.2°F13.4°C 51.5°F10.8°C 84% 4.6 mph WNW7.4 kmh WNW 5.8 mph9.3 kmh 30.04 in1017.3 mb - 0.00 in0.0 mm 0.00 in0.0 mm
08:30 AM 55.5°F13.1°C 51.1°F10.6°C 85% 9.2 mph W14.8 kmh W 12.7 mph20.4 kmh 30.04 in1017.3 mb - 0.00 in0.0 mm 0.00 in0.0 mm
08:20 AM 54.8°F12.7°C 50.7°F10.4°C 86% 8.1 mph WNW13.0 kmh WNW 15.0 mph24.1 kmh 30.04 in1017.3 mb - 0.00 in0.0 mm 0.00 in0.0 mm
08:10 AM 54.2°F12.3°C 50.4°F10.2°C 87% 6.9 mph W11.1 kmh W 11.5 mph18.5 kmh 30.04 in1017.3 mb - 0.00 in0.0 mm 0.00 in0.0 mm
08:00 AM 53.4°F11.9°C 50.2°F10.1°C 89% 3.5 mph W5.6 kmh W 5.8 mph9.3 kmh 30.04 in1017.3 mb - 0.00 in0.0 mm 0.00 in0.0 mm
07:50 AM 52.5°F11.4°C 49.4°F9.7°C 89% 3.5 mph W5.6 kmh W 5.8 mph9.3 kmh 30.04 in1017.3 mb - 0.00 in0.0 mm 0.00 in0.0 mm
07:40 AM 51.8°F11.0°C 49.0°F9.4°C 90% 4.6 mph WNW7.4 kmh WNW 5.8 mph9.3 kmh 30.03 in1016.9 mb - 0.00 in0.0 mm 0.00 in0.0 mm
07:30 AM 51.4°F10.8°C 48.6°F9.2°C 90% 2.3 mph NW3.7 kmh NW 4.6 mph7.4 kmh 30.03 in1016.9 mb - 0.00 in0.0 mm 0.00 in0.0 mm
07:20 AM 51.1°F10.6°C 48.3°F9.1°C 90% 2.3 mph NW3.7 kmh NW 5.8 mph9.3 kmh 30.02 in1016.6 mb - 0.00 in0.0 mm 0.00 in0.0 mm
07:10 AM 50.9°F10.5°C 48.0°F8.9°C 90% 5.8 mph W9.3 kmh W 6.9 mph11.1 kmh 30.02 in1016.6 mb - 0.00 in0.0 mm 0.00 in0.0 mm
07:00 AM 50.7°F10.4°C 47.6°F8.7°C 89% 2.3 mph NW3.7 kmh NW 5.8 mph9.3 kmh 30.02 in1016.6 mb - 0.00 in0.0 mm 0.00 in0.0 mm
06:50 AM 50.7°F10.4°C 47.5°F8.6°C 89% 3.5 mph NW5.6 kmh NW 6.9 mph11.1 kmh 30.01 in1016.3 mb - 0.00 in0.0 mm 0.00 in0.0 mm
06:40 AM 50.7°F10.4°C 47.6°F8.7°C 89% 1.2 mph WNW1.9 kmh WNW 5.8 mph9.3 kmh 30.01 in1016.3 mb - 0.00 in0.0 mm 0.00 in0.0 mm
06:30 AM 50.6°F10.3°C 47.5°F8.6°C 89% 3.5 mph NW5.6 kmh NW 8.1 mph13.0 kmh 30.01 in1016.3 mb - 0.00 in0.0 mm 0.00 in0.0 mm
06:20 AM 50.4°F10.2°C 47.3°F8.5°C 89% 6.9 mph NW11.1 kmh NW 8.1 mph13.0 kmh 30.00 in1015.9 mb - 0.00 in0.0 mm 0.00 in0.0 mm
06:10 AM 50.1°F10.1°C 47.0°F8.3°C 89% 5.8 mph NW9.3 kmh NW 8.1 mph13.0 kmh 30.00 in1015.9 mb - 0.00 in0.0 mm 0.00 in0.0 mm
06:00 AM 50.1°F10.1°C 46.7°F8.2°C 88% 4.6 mph NW7.4 kmh NW 9.2 mph14.8 kmh 30.00 in1015.9 mb - 0.00 in0.0 mm 0.00 in0.0 mm
05:50 AM 50.3°F10.2°C 46.9°F8.3°C 88% 5.8 mph NNW9.3 kmh NNW 8.1 mph13.0 kmh 30.00 in1015.9 mb - 0.00 in0.0 mm 0.00 in0.0 mm
05:40 AM 50.5°F10.3°C 46.8°F8.2°C 87% 5.8 mph NW9.3 kmh NW 6.9 mph11.1 kmh 29.99 in1015.6 mb - 0.00 in0.0 mm 0.00 in0.0 mm
05:30 AM 50.8°F10.4°C 47.1°F8.4°C 87% 5.8 mph NW9.3 kmh NW 10.4 mph16.7 kmh 29.99 in1015.6 mb - 0.00 in0.0 mm 0.00 in0.0 mm
05:20 AM 51.0°F10.6°C 47.3°F8.5°C 87% 4.6 mph NW7.4 kmh NW 8.1 mph13.0 kmh 29.98 in1015.2 mb - 0.00 in0.0 mm 0.00 in0.0 mm
05:10 AM 51.2°F10.7°C 47.2°F8.4°C 86% 5.8 mph NW9.3 kmh NW 8.1 mph13.0 kmh 29.98 in1015.2 mb - 0.00 in0.0 mm 0.00 in0.0 mm
05:00 AM 51.4°F10.8°C 47.3°F8.5°C 86% 4.6 mph NNW7.4 kmh NNW 9.2 mph14.8 kmh 29.98 in1015.2 mb - 0.00 in0.0 mm 0.00 in0.0 mm
04:50 AM 51.4°F10.8°C 47.4°F8.6°C 86% 5.8 mph NNW9.3 kmh NNW 8.1 mph13.0 kmh 29.98 in1015.2 mb - 0.00 in0.0 mm 0.00 in0.0 mm
04:40 AM 51.5°F10.8°C 47.5°F8.6°C 86% 4.6 mph NNW7.4 kmh NNW 10.4 mph16.7 kmh 29.98 in1015.2 mb - 0.00 in0.0 mm 0.00 in0.0 mm
04:30 AM 51.6°F10.9°C 47.6°F8.7°C 86% 1.2 mph NNW1.9 kmh NNW 3.5 mph5.6 kmh 29.98 in1015.2 mb - 0.00 in0.0 mm 0.00 in0.0 mm
04:20 AM 51.7°F10.9°C 47.6°F8.7°C 86% 3.5 mph NW5.6 kmh NW 5.8 mph9.3 kmh 29.98 in1015.2 mb - 0.00 in0.0 mm 0.00 in0.0 mm
04:10 AM 51.8°F11.0°C 47.7°F8.7°C 86% 3.5 mph NW5.6 kmh NW 6.9 mph11.1 kmh 29.98 in1015.2 mb - 0.00 in0.0 mm 0.00 in0.0 mm
04:00 AM 51.8°F11.0°C 47.4°F8.6°C 85% 2.3 mph NNW3.7 kmh NNW 6.9 mph11.1 kmh 29.97 in1014.9 mb - 0.00 in0.0 mm 0.00 in0.0 mm
03:50 AM 51.9°F11.1°C 47.6°F8.7°C 85% 3.5 mph NW5.6 kmh NW 6.9 mph11.1 kmh 29.98 in1015.2 mb - 0.00 in0.0 mm 0.00 in0.0 mm
03:40 AM 52.1°F11.2°C 47.7°F8.7°C 85% 1.2 mph NW1.9 kmh NW 2.3 mph3.7 kmh 29.97 in1014.9 mb - 0.00 in0.0 mm 0.00 in0.0 mm
03:30 AM 52.3°F11.3°C 47.6°F8.7°C 84% 3.5 mph NW5.6 kmh NW 6.9 mph11.1 kmh 29.98 in1015.2 mb - 0.00 in0.0 mm 0.00 in0.0 mm
03:20 AM 52.5°F11.4°C 47.8°F8.8°C 84% 2.3 mph NW3.7 kmh NW 5.8 mph9.3 kmh 29.98 in1015.2 mb - 0.00 in0.0 mm 0.00 in0.0 mm
03:10 AM 52.7°F11.5°C 48.0°F8.9°C 84% 2.3 mph NW3.7 kmh NW 5.8 mph9.3 kmh 29.98 in1015.2 mb - 0.00 in0.0 mm 0.00 in0.0 mm
03:00 AM 53.0°F11.7°C 48.0°F8.9°C 83% 3.5 mph NW5.6 kmh NW 8.1 mph13.0 kmh 29.98 in1015.2 mb - 0.00 in0.0 mm 0.00 in0.0 mm
02:50 AM 53.3°F11.8°C 48.3°F9.1°C 83% 2.3 mph NW3.7 kmh NW 6.9 mph11.1 kmh 29.98 in1015.2 mb - 0.00 in0.0 mm 0.00 in0.0 mm
02:40 AM 53.7°F12.1°C 48.7°F9.3°C 83% 2.3 mph NW3.7 kmh NW 3.5 mph5.6 kmh 29.99 in1015.6 mb - 0.00 in0.0 mm 0.00 in0.0 mm
02:30 AM 53.9°F12.2°C 48.5°F9.2°C 82% 3.5 mph NW5.6 kmh NW 6.9 mph11.1 kmh 29.99 in1015.6 mb - 0.00 in0.0 mm 0.00 in0.0 mm
02:20 AM 54.2°F12.3°C 48.8°F9.3°C 82% 3.5 mph NNW5.6 kmh NNW 8.1 mph13.0 kmh 29.99 in1015.6 mb - 0.00 in0.0 mm 0.00 in0.0 mm
02:10 AM 54.4°F12.4°C 48.7°F9.3°C 81% 2.3 mph NW3.7 kmh NW 4.6 mph7.4 kmh 29.99 in1015.6 mb - 0.00 in0.0 mm 0.00 in0.0 mm
02:00 AM 54.5°F12.5°C 48.8°F9.3°C 81% 3.5 mph NW5.6 kmh NW 5.8 mph9.3 kmh 29.99 in1015.6 mb - 0.00 in0.0 mm 0.00 in0.0 mm
01:50 AM 54.6°F12.6°C 48.9°F9.4°C 81% 3.5 mph NW5.6 kmh NW 4.6 mph7.4 kmh 29.99 in1015.6 mb - 0.00 in0.0 mm 0.00 in0.0 mm
01:40 AM 54.6°F12.6°C 48.6°F9.2°C 80% 3.5 mph WNW5.6 kmh WNW 8.1 mph13.0 kmh 29.99 in1015.6 mb - 0.00 in0.0 mm 0.00 in0.0 mm
01:30 AM 54.8°F12.7°C 48.7°F9.3°C 80% Calm Calm 2.3 mph3.7 kmh 29.99 in1015.6 mb - 0.00 in0.0 mm 0.00 in0.0 mm
01:20 AM 55.0°F12.8°C 48.6°F9.2°C 79% 1.2 mph W1.9 kmh W 3.5 mph5.6 kmh 29.99 in1015.6 mb - 0.00 in0.0 mm 0.00 in0.0 mm
01:10 AM 55.2°F12.9°C 48.8°F9.3°C 79% Calm Calm 2.3 mph3.7 kmh 29.98 in1015.2 mb - 0.00 in0.0 mm 0.00 in0.0 mm
01:00 AM 55.3°F12.9°C 48.6°F9.2°C 78% Calm Calm -- 29.98 in1015.2 mb - 0.00 in0.0 mm 0.00 in0.0 mm
12:50 AM 55.5°F13.1°C 48.8°F9.3°C 78% 1.2 mph W1.9 kmh W 4.6 mph7.4 kmh 29.98 in1015.2 mb - 0.00 in0.0 mm 0.00 in0.0 mm
12:40 AM 55.8°F13.2°C 49.0°F9.4°C 78% Calm Calm 1.2 mph1.9 kmh 29.98 in1015.2 mb - 0.00 in0.0 mm 0.00 in0.0 mm
12:30 AM 56.0°F13.3°C 48.9°F9.4°C 77% Calm Calm -- 29.98 in1015.2 mb - 0.00 in0.0 mm 0.00 in0.0 mm
12:20 AM 56.1°F13.4°C 48.6°F9.2°C 76% 1.2 mph W1.9 kmh W 4.6 mph7.4 kmh 29.98 in1015.2 mb - 0.00 in0.0 mm 0.00 in0.0 mm
12:10 AM 56.4°F13.6°C 48.9°F9.4°C 76% Calm Calm -- 29.98 in1015.2 mb - 0.00 in0.0 mm 0.00 in0.0 mm
12:00 AM 56.7°F13.7°C 48.9°F9.4°C 75% Calm Calm -- 29.98 in1015.2 mb - 0.00 in0.0 mm 0.00 in0.0 mm